Time;durP1;ratioP1;P1;durP2;ratioP2;P2;SDS_P1;SDS_P2;PMS_P1;PMS_P2;Temp;Humidity;BMP_temperature;BMP_pressure;BME280_temperature;BME280_humidity;BME280_pressure;Samples;Min_cycle;Max_cycle;Signal;HPM_P1;HPM_P2
2023/10/20 00:01:21;;;;;;;13.07;8.80;;;8.00;99.90;;;;;;5054281;28;20087;-67
2023/10/20 00:03:46;;;;;;;15.57;9.40;;;8.00;99.90;;;;;;5086954;28;20072;-67
2023/10/20 00:06:13;;;;;;;13.65;8.73;;;8.00;99.90;;;;;;5070141;28;20048;-68
2023/10/20 00:08:39;;;;;;;13.52;9.00;;;8.00;99.90;;;;;;5053853;28;20037;-67
2023/10/20 00:11:06;;;;;;;16.42;9.88;;;8.10;99.90;;;;;;5036999;28;20043;-67
2023/10/20 00:13:32;;;;;;;12.65;8.05;;;8.00;99.90;;;;;;5053693;28;20090;-67
2023/10/20 00:15:58;;;;;;;14.57;9.35;;;8.10;99.90;;;;;;5086908;28;20048;-67
2023/10/20 00:18:23;;;;;;;11.98;8.52;;;8.00;99.90;;;;;;5054443;28;20056;-67
2023/10/20 00:20:49;;;;;;;14.13;9.23;;;8.10;99.90;;;;;;5052423;28;20080;-68
2023/10/20 00:23:15;;;;;;;13.40;8.63;;;8.10;99.90;;;;;;5052962;28;20135;-67
2023/10/20 00:25:41;;;;;;;13.05;8.63;;;8.00;99.90;;;;;;5054441;28;20125;-67
2023/10/20 00:28:09;;;;;;;11.95;8.10;;;8.10;99.90;;;;;;5053374;28;20045;-67
2023/10/20 00:30:35;;;;;;;13.75;7.85;;;8.00;99.90;;;;;;5054191;28;20464;-67
2023/10/20 00:33:01;;;;;;;14.73;9.25;;;8.00;99.90;;;;;;5053336;28;20048;-67
2023/10/20 00:35:27;;;;;;;14.35;9.18;;;8.00;99.90;;;;;;5085908;28;20436;-67
2023/10/20 00:37:53;;;;;;;13.02;8.73;;;8.00;99.90;;;;;;5054625;28;20048;-67
2023/10/20 00:40:20;;;;;;;15.50;8.68;;;8.10;99.90;;;;;;5066997;28;20040;-67
2023/10/20 00:42:45;;;;;;;12.73;8.48;;;8.00;99.90;;;;;;5072186;28;20493;-67
2023/10/20 00:45:11;;;;;;;15.45;9.38;;;8.00;99.90;;;;;;5072502;28;20048;-67
2023/10/20 00:47:39;;;;;;;15.20;7.93;;;8.00;99.90;;;;;;5064801;28;20029;-67
2023/10/20 00:50:08;;;;;;;13.40;8.52;;;8.00;99.90;;;;;;5052431;28;20118;-67
2023/10/20 00:52:37;;;;;;;12.93;8.85;;;7.90;99.90;;;;;;5052495;28;20052;-67
2023/10/20 00:55:07;;;;;;;12.60;8.43;;;8.00;99.90;;;;;;5052888;28;20045;-67
2023/10/20 00:57:34;;;;;;;14.25;9.25;;;8.00;99.90;;;;;;5051528;28;20041;-67
2023/10/20 01:00:00;;;;;;;12.43;7.88;;;7.90;99.90;;;;;;5052415;28;20048;-67
2023/10/20 01:02:26;;;;;;;15.30;9.20;;;8.00;99.90;;;;;;5071725;28;20036;-67
2023/10/20 01:04:52;;;;;;;14.07;9.18;;;8.00;99.90;;;;;;5072773;28;20119;-67
2023/10/20 01:07:17;;;;;;;12.63;8.70;;;8.00;99.90;;;;;;5072576;28;20120;-67
2023/10/20 01:09:43;;;;;;;15.20;8.90;;;8.00;99.90;;;;;;5071787;28;20074;-67
2023/10/20 01:12:09;;;;;;;14.18;8.90;;;8.00;99.90;;;;;;5073098;28;20501;-67
2023/10/20 01:14:35;;;;;;;15.13;8.60;;;7.90;99.90;;;;;;5072957;28;20037;-67
2023/10/20 01:17:01;;;;;;;15.30;9.40;;;8.00;99.90;;;;;;5052807;28;20052;-67
2023/10/20 01:19:27;;;;;;;14.18;9.32;;;8.00;99.90;;;;;;5052491;28;20037;-67
2023/10/20 01:21:53;;;;;;;11.73;7.93;;;8.00;99.90;;;;;;5052245;28;20037;-67
2023/10/20 01:24:19;;;;;;;15.48;8.32;;;7.90;99.90;;;;;;5051087;28;20090;-67
2023/10/20 01:26:44;;;;;;;15.57;8.77;;;8.00;99.90;;;;;;5053077;28;20037;-67
2023/10/20 01:29:12;;;;;;;14.60;9.02;;;7.90;99.90;;;;;;5051701;28;20044;-66
2023/10/20 01:31:38;;;;;;;14.50;8.35;;;8.00;99.90;;;;;;5052627;28;20045;-66
2023/10/20 01:34:05;;;;;;;15.68;7.78;;;7.90;99.90;;;;;;5064510;28;20032;-67
2023/10/20 01:36:30;;;;;;;14.00;8.30;;;7.90;99.90;;;;;;5052818;28;20048;-67
2023/10/20 01:38:56;;;;;;;14.93;9.15;;;8.00;99.90;;;;;;5051249;28;20398;-67
2023/10/20 01:41:26;;;;;;;15.27;9.38;;;7.90;99.90;;;;;;5051500;28;20073;-67
2023/10/20 01:43:51;;;;;;;12.73;8.20;;;8.00;99.90;;;;;;5051782;28;20043;-67
2023/10/20 01:46:17;;;;;;;16.08;9.50;;;8.00;99.90;;;;;;5050987;28;20470;-66
2023/10/20 01:48:43;;;;;;;16.20;9.40;;;8.00;99.90;;;;;;5052793;28;20383;-66
2023/10/20 01:51:08;;;;;;;13.15;8.40;;;7.90;99.90;;;;;;5052519;28;20048;-66
2023/10/20 01:53:34;;;;;;;15.25;8.18;;;7.90;99.90;;;;;;5050625;28;20383;-67
2023/10/20 01:56:00;;;;;;;14.57;8.48;;;7.90;99.90;;;;;;5034835;28;20071;-66
2023/10/20 01:58:25;;;;;;;15.52;9.52;;;8.00;99.90;;;;;;5052747;28;20041;-67
2023/10/20 02:00:52;;;;;;;17.95;10.35;;;8.00;99.90;;;;;;5051029;28;20045;-66
2023/10/20 02:03:19;;;;;;;15.88;9.90;;;7.90;99.90;;;;;;5052561;28;20041;-66
2023/10/20 02:05:45;;;;;;;19.77;10.48;;;7.90;99.90;;;;;;5058111;28;20040;-67
2023/10/20 02:08:11;;;;;;;16.95;10.02;;;7.90;99.90;;;;;;5071526;28;20097;-67
2023/10/20 02:10:37;;;;;;;18.20;9.60;;;7.90;99.90;;;;;;5070742;28;20482;-66
2023/10/20 02:13:03;;;;;;;18.67;10.88;;;8.00;99.90;;;;;;5070542;28;20036;-66
2023/10/20 02:15:29;;;;;;;20.25;11.40;;;8.00;99.90;;;;;;5072226;28;20086;-67
2023/10/20 02:17:56;;;;;;;20.15;11.85;;;8.00;99.90;;;;;;5071617;28;20454;-67
2023/10/20 02:20:23;;;;;;;16.75;11.25;;;8.00;99.90;;;;;;5071626;28;20043;-67
2023/10/20 02:22:53;;;;;;;21.52;12.95;;;8.00;99.90;;;;;;5069466;28;20071;-66
2023/10/20 02:25:19;;;;;;;18.48;10.57;;;7.90;99.90;;;;;;5050904;28;20486;-67
2023/10/20 02:27:47;;;;;;;23.88;11.82;;;7.90;99.90;;;;;;5033443;28;20049;-67
2023/10/20 02:30:14;;;;;;;21.98;11.70;;;8.00;99.90;;;;;;5050786;28;20049;-67
2023/10/20 02:32:40;;;;;;;21.45;12.40;;;7.90;99.90;;;;;;5034307;28;20049;-67
2023/10/20 02:35:07;;;;;;;20.80;11.77;;;7.90;99.90;;;;;;5051165;28;20041;-67
2023/10/20 02:37:33;;;;;;;25.02;13.88;;;8.00;99.90;;;;;;5070683;28;20532;-67
2023/10/20 02:39:59;;;;;;;25.38;13.45;;;8.00;99.90;;;;;;5072113;28;20068;-67
2023/10/20 02:42:24;;;;;;;33.55;12.50;;;8.00;99.90;;;;;;5103800;28;20036;-68
2023/10/20 02:44:50;;;;;;;20.33;12.30;;;8.00;99.90;;;;;;5084710;28;20041;-67
2023/10/20 02:47:16;;;;;;;24.75;13.05;;;8.00;99.90;;;;;;5071410;28;20051;-67
2023/10/20 02:49:41;;;;;;;22.35;12.50;;;8.00;99.90;;;;;;5061354;28;20466;-67
2023/10/20 02:52:07;;;;;;;22.30;13.50;;;7.90;99.90;;;;;;5050641;28;20107;-67
2023/10/20 02:54:34;;;;;;;23.60;14.38;;;8.00;99.90;;;;;;5050405;28;20406;-67
2023/10/20 02:57:00;;;;;;;22.38;12.63;;;8.00;99.90;;;;;;5050163;28;20045;-69
2023/10/20 02:59:25;;;;;;;21.30;13.02;;;8.00;99.90;;;;;;5050634;28;20094;-67
2023/10/20 03:01:54;;;;;;;19.58;12.85;;;7.90;99.90;;;;;;5059544;28;20035;-67
2023/10/20 03:04:19;;;;;;;23.67;14.43;;;7.90;99.90;;;;;;5070010;28;20448;-67
2023/10/20 03:06:46;;;;;;;22.40;13.88;;;7.90;99.90;;;;;;5070462;28;20048;-67
2023/10/20 03:09:13;;;;;;;25.38;14.02;;;8.00;99.90;;;;;;5069886;28;20060;-67
2023/10/20 03:11:40;;;;;;;24.15;14.68;;;7.90;99.90;;;;;;5071706;28;20040;-67
2023/10/20 03:14:06;;;;;;;23.63;12.73;;;7.90;99.90;;;;;;5092629;28;20045;-67
2023/10/20 03:16:34;;;;;;;23.38;13.57;;;7.90;99.90;;;;;;5049514;28;20135;-67
2023/10/20 03:19:01;;;;;;;26.33;14.45;;;7.80;99.90;;;;;;5050633;28;20406;-66
2023/10/20 03:21:26;;;;;;;24.98;14.65;;;7.90;99.90;;;;;;5057364;28;20055;-66
2023/10/20 03:23:52;;;;;;;22.48;13.90;;;7.90;99.90;;;;;;5056925;28;20041;-66
2023/10/20 03:26:18;;;;;;;26.30;14.45;;;7.80;99.90;;;;;;5050286;28;20045;-66
2023/10/20 03:28:43;;;;;;;24.25;14.10;;;7.70;99.90;;;;;;5067018;28;20052;-66
2023/10/20 03:31:09;;;;;;;22.63;13.80;;;7.70;99.90;;;;;;5050511;28;20047;-66
2023/10/20 03:33:34;;;;;;;28.30;15.52;;;7.70;99.90;;;;;;5051426;28;20045;-66
2023/10/20 03:36:04;;;;;;;22.85;13.80;;;7.80;99.90;;;;;;5033706;28;20455;-65
2023/10/20 03:38:31;;;;;;;22.75;13.95;;;7.80;99.90;;;;;;5049301;28;20467;-65
2023/10/20 03:41:07;;;;;;;24.33;14.55;;;7.80;99.90;;;;;;5051849;28;20037;-65
2023/10/20 03:43:35;;;;;;;25.52;14.50;;;7.70;99.90;;;;;;5033511;28;20049;-66
2023/10/20 03:46:01;;;;;;;22.10;13.90;;;7.70;99.90;;;;;;5049697;28;20102;-66
2023/10/20 03:48:29;;;;;;;23.98;13.50;;;7.70;99.90;;;;;;5051390;28;20041;-65
2023/10/20 03:50:55;;;;;;;21.27;13.05;;;7.70;99.90;;;;;;5050079;28;20045;-65
2023/10/20 03:53:27;;;;;;;25.08;14.25;;;7.60;99.90;;;;;;5050877;28;20120;-66
2023/10/20 03:56:00;;;;;;;22.42;14.63;;;7.70;99.90;;;;;;5066810;28;20048;-65
2023/10/20 03:58:29;;;;;;;22.92;13.77;;;7.70;99.90;;;;;;5056458;28;20365;-66
2023/10/20 04:01:02;;;;;;;23.40;15.75;;;7.70;99.90;;;;;;5073696;28;20040;-65
2023/10/20 04:03:31;;;;;;;23.02;13.45;;;7.70;99.90;;;;;;5073866;28;20539;-66
2023/10/20 04:05:57;;;;;;;27.75;17.23;;;7.70;99.90;;;;;;5072953;28;20083;-65
2023/10/20 04:08:23;;;;;;;28.92;14.25;;;7.60;99.90;;;;;;5056770;28;20086;-65
2023/10/20 04:10:56;;;;;;;22.73;14.23;;;7.70;99.90;;;;;;5073588;28;20126;-65
2023/10/20 04:13:23;;;;;;;22.10;13.13;;;7.70;99.90;;;;;;5071418;28;20501;-65
2023/10/20 04:15:49;;;;;;;19.50;13.52;;;7.70;99.90;;;;;;5074290;28;20044;-65
2023/10/20 04:18:16;;;;;;;23.30;14.23;;;7.70;99.90;;;;;;5073486;28;20080;-65
2023/10/20 04:20:42;;;;;;;23.23;13.43;;;7.70;99.90;;;;;;5073760;28;20037;-65
2023/10/20 04:23:08;;;;;;;21.52;13.07;;;7.70;99.90;;;;;;5072777;28;20105;-65
2023/10/20 04:25:52;;;;;;;23.55;13.55;;;7.70;99.90;;;;;;5072897;28;20119;-65
2023/10/20 04:28:33;;;;;;;18.33;12.25;;;7.80;99.90;;;;;;5065568;28;20046;-65
2023/10/20 04:59:45;;;;;;;15.80;9.80;;;7.80;99.90;;;;;;5073447;28;20055;-65
2023/10/20 05:02:32;;;;;;;19.80;14.43;;;7.80;99.90;;;;;;5071772;28;20040;-65
2023/10/20 05:04:57;;;;;;;16.27;10.88;;;7.80;99.90;;;;;;5073865;28;20486;-65
2023/10/20 05:07:26;;;;;;;14.77;10.32;;;7.70;99.90;;;;;;5072542;28;20091;-65
2023/10/20 05:09:54;;;;;;;16.52;10.48;;;7.80;99.90;;;;;;5071443;28;20040;-66
2023/10/20 05:12:20;;;;;;;16.65;10.18;;;7.70;99.90;;;;;;5071998;28;20448;-66
2023/10/20 05:14:49;;;;;;;12.38;8.68;;;7.70;99.90;;;;;;5073265;28;20115;-65
2023/10/20 05:17:17;;;;;;;13.23;9.20;;;7.70;99.90;;;;;;5062909;28;20425;-66
2023/10/20 05:19:43;;;;;;;13.10;9.38;;;7.80;99.90;;;;;;5052175;28;20450;-65
2023/10/20 05:22:09;;;;;;;14.32;9.80;;;7.80;99.90;;;;;;5037849;28;20033;-66
2023/10/20 05:24:35;;;;;;;11.80;7.72;;;7.80;99.90;;;;;;5071429;28;20032;-65
2023/10/20 05:27:01;;;;;;;11.77;8.43;;;7.80;99.90;;;;;;5072630;28;20492;-65
2023/10/20 05:29:26;;;;;;;11.88;7.72;;;7.80;99.90;;;;;;5072086;28;20040;-65
2023/10/20 05:31:52;;;;;;;14.95;7.95;;;7.80;99.90;;;;;;5070942;28;20040;-65
2023/10/20 05:34:18;;;;;;;11.93;7.35;;;7.90;99.90;;;;;;5054491;28;20040;-65
2023/10/20 05:36:44;;;;;;;11.45;7.03;;;7.80;99.90;;;;;;5071547;28;20124;-65
2023/10/20 05:39:13;;;;;;;37.38;18.98;;;7.90;99.90;;;;;;5071041;28;20466;-65
2023/10/20 05:41:39;;;;;;;25.55;13.88;;;7.90;99.90;;;;;;5072995;28;20181;-66
2023/10/20 05:44:06;;;;;;;16.48;11.13;;;7.90;99.90;;;;;;5071020;28;20040;-65
2023/10/20 05:46:32;;;;;;;15.25;11.10;;;7.90;99.90;;;;;;5071703;28;20485;-65
2023/10/20 05:48:57;;;;;;;12.32;8.55;;;7.80;99.90;;;;;;5071835;28;20044;-65
2023/10/20 05:51:23;;;;;;;9.32;5.75;;;7.80;99.90;;;;;;5070431;28;20095;-65
2023/10/20 05:53:49;;;;;;;11.55;6.93;;;7.90;99.90;;;;;;5071507;28;20053;-65
2023/10/20 05:56:14;;;;;;;11.57;6.82;;;7.90;99.90;;;;;;5072259;28;20052;-65
2023/10/20 05:58:41;;;;;;;10.15;6.03;;;7.90;99.90;;;;;;5070421;28;20041;-65
2023/10/20 06:01:08;;;;;;;8.48;6.32;;;7.90;99.90;;;;;;5071372;28;20044;-65
2023/10/20 06:03:34;;;;;;;12.15;6.93;;;7.90;99.90;;;;;;5071105;28;20045;-65
2023/10/20 06:06:01;;;;;;;10.05;6.18;;;7.90;99.90;;;;;;5070050;28;20050;-66
2023/10/20 06:08:28;;;;;;;9.95;5.85;;;7.90;99.90;;;;;;5072510;28;20059;-66
2023/10/20 06:11:02;;;;;;;8.52;5.75;;;8.00;99.90;;;;;;5071310;28;20115;-66
2023/10/20 06:13:29;;;;;;;11.05;5.65;;;7.90;99.90;;;;;;5050423;28;20045;-66
2023/10/20 06:15:55;;;;;;;10.18;5.15;;;8.00;99.90;;;;;;5052328;28;20166;-66
2023/10/20 06:18:20;;;;;;;10.40;5.65;;;8.00;99.90;;;;;;5055190;28;20107;-66
2023/10/20 06:20:46;;;;;;;8.27;5.20;;;8.00;99.90;;;;;;5069936;28;20121;-66
2023/10/20 06:23:12;;;;;;;8.98;5.38;;;8.00;99.90;;;;;;5072531;28;20028;-66
2023/10/20 06:25:38;;;;;;;7.90;4.65;;;8.00;99.90;;;;;;5071023;28;20509;-65
2023/10/20 06:28:04;;;;;;;6.88;4.32;;;8.00;99.90;;;;;;5070083;28;20051;-65
2023/10/20 06:30:30;;;;;;;7.10;3.88;;;8.00;99.90;;;;;;5071618;28;20123;-65
2023/10/20 06:33:16;;;;;;;6.18;3.25;;;8.00;99.90;;;;;;5071110;28;20123;-66
2023/10/20 06:35:52;;;;;;;7.43;3.40;;;7.90;99.90;;;;;;5070775;28;20048;-65
2023/10/20 06:40:51;;;;;;;7.30;4.00;;;7.90;99.90;;;;;;5070336;28;20048;-66
2023/10/20 06:43:19;;;;;;;7.57;4.32;;;7.90;99.90;;;;;;5070846;28;20036;-66
2023/10/20 06:45:45;;;;;;;8.10;3.05;;;7.90;99.90;;;;;;5069100;28;20084;-65
2023/10/20 06:48:11;;;;;;;6.47;3.13;;;8.00;99.90;;;;;;5052688;28;20418;-65
2023/10/20 06:50:37;;;;;;;7.15;4.00;;;7.90;99.90;;;;;;5050626;28;20047;-65
2023/10/20 06:53:02;;;;;;;6.50;3.50;;;7.90;99.90;;;;;;5051876;28;20052;-65
2023/10/20 06:55:28;;;;;;;6.97;3.13;;;7.90;99.90;;;;;;5049744;28;20046;-65
2023/10/20 06:57:54;;;;;;;7.45;3.30;;;7.90;99.90;;;;;;5050790;28;20041;-65
2023/10/20 07:00:20;;;;;;;7.50;3.17;;;7.80;99.90;;;;;;5051623;28;20470;-65
2023/10/20 07:02:46;;;;;;;6.03;3.53;;;7.80;99.90;;;;;;5049720;28;20049;-65
2023/10/20 07:05:13;;;;;;;6.63;3.45;;;7.80;99.90;;;;;;5051858;28;20033;-65
2023/10/20 07:07:40;;;;;;;9.30;3.70;;;7.80;99.90;;;;;;5050917;28;20564;-65
2023/10/20 07:10:10;;;;;;;8.00;3.72;;;7.80;99.90;;;;;;5051048;28;20045;-66
2023/10/20 07:12:36;;;;;;;13.48;6.93;;;7.80;99.90;;;;;;5051838;28;20037;-66
2023/10/20 07:15:01;;;;;;;12.50;6.18;;;7.80;99.90;;;;;;5058467;28;20036;-66
2023/10/20 07:17:28;;;;;;;8.43;4.35;;;7.80;99.90;;;;;;5046559;28;20045;-66
2023/10/20 07:19:54;;;;;;;10.00;4.97;;;7.80;99.90;;;;;;5034164;28;20037;-66
2023/10/20 07:22:19;;;;;;;7.85;4.63;;;7.80;99.90;;;;;;5050717;28;20134;-66
2023/10/20 07:24:47;;;;;;;7.68;4.22;;;7.70;99.90;;;;;;5058907;28;20485;-65
2023/10/20 07:27:12;;;;;;;7.60;4.00;;;7.70;99.90;;;;;;5062665;28;20052;-66
2023/10/20 07:29:38;;;;;;;7.40;3.95;;;7.70;99.90;;;;;;5050501;28;20033;-66
2023/10/20 07:32:04;;;;;;;7.20;3.78;;;7.70;99.90;;;;;;5045176;28;20037;-66
2023/10/20 07:34:31;;;;;;;7.90;3.85;;;7.70;99.90;;;;;;5064780;28;20133;-66
2023/10/20 07:36:57;;;;;;;11.82;6.25;;;7.70;99.90;;;;;;5064645;28;20061;-65
2023/10/20 07:39:22;;;;;;;6.40;3.28;;;7.70;99.90;;;;;;5063235;28;20033;-66
2023/10/20 07:41:48;;;;;;;9.20;4.93;;;7.70;99.90;;;;;;5048260;28;20037;-65
2023/10/20 07:44:16;;;;;;;9.75;5.55;;;7.70;99.90;;;;;;5100891;28;20409;-65
2023/10/20 07:46:42;;;;;;;7.82;4.28;;;7.70;99.90;;;;;;5071454;28;20056;-66
2023/10/20 07:49:11;;;;;;;6.22;3.40;;;7.70;99.90;;;;;;5065576;28;20540;-65
2023/10/20 07:51:40;;;;;;;7.70;4.55;;;7.60;99.90;;;;;;5043281;28;20072;-61
2023/10/20 07:54:08;;;;;;;7.28;4.55;;;7.60;99.90;;;;;;5051989;28;20449;-61
2023/10/20 07:56:33;;;;;;;7.82;3.83;;;7.60;99.90;;;;;;5068609;28;20138;-61
2023/10/20 07:58:59;;;;;;;6.70;4.10;;;7.60;99.90;;;;;;5063121;28;20308;-61
2023/10/20 08:01:25;;;;;;;6.05;3.10;;;7.60;99.90;;;;;;5051214;28;20680;-62
2023/10/20 08:03:52;;;;;;;6.38;3.60;;;7.60;99.90;;;;;;5052193;28;20448;-61
2023/10/20 08:06:18;;;;;;;5.95;3.22;;;7.60;99.90;;;;;;5050481;28;20060;-62
2023/10/20 08:08:44;;;;;;;6.38;3.53;;;7.50;99.90;;;;;;5050931;28;20061;-61
2023/10/20 08:11:10;;;;;;;6.10;3.60;;;7.50;99.90;;;;;;5054409;28;20052;-62
2023/10/20 08:13:37;;;;;;;5.45;2.88;;;7.40;99.90;;;;;;5059452;28;20136;-61
2023/10/20 08:16:05;;;;;;;9.45;4.30;;;7.40;99.90;;;;;;5105002;28;20528;-61
2023/10/20 08:18:33;;;;;;;6.88;3.78;;;7.40;99.90;;;;;;5071121;28;20049;-62
2023/10/20 08:21:07;;;;;;;5.90;3.20;;;7.40;99.90;;;;;;5053789;28;20047;-61
2023/10/20 08:23:37;;;;;;;8.40;3.70;;;7.40;99.90;;;;;;5056172;28;20051;-62
2023/10/20 08:26:04;;;;;;;17.80;11.45;;;7.40;99.90;;;;;;5051392;28;20044;-62
2023/10/20 08:28:30;;;;;;;9.10;6.18;;;7.40;99.90;;;;;;5049966;28;20070;-62
2023/10/20 08:31:10;;;;;;;8.15;5.85;;;7.30;99.90;;;;;;5057882;28;20534;-62
2023/10/20 08:33:36;;;;;;;11.55;8.88;;;7.30;99.90;;;;;;5048737;28;20048;-63
2023/10/20 08:36:15;;;;;;;8.52;5.85;;;7.30;99.90;;;;;;5051345;28;20076;-62
2023/10/20 08:38:47;;;;;;;9.00;6.72;;;7.30;99.90;;;;;;5048230;28;20044;-62
2023/10/20 08:41:18;;;;;;;9.35;6.00;;;7.30;99.90;;;;;;5049447;28;20048;-62
2023/10/20 08:43:45;;;;;;;8.10;4.45;;;7.30;99.90;;;;;;5037297;28;20041;-62
2023/10/20 08:46:13;;;;;;;7.15;4.18;;;7.30;99.90;;;;;;5050074;28;20047;-61
2023/10/20 08:48:46;;;;;;;6.75;3.60;;;7.30;99.90;;;;;;5049051;28;20071;-62
2023/10/20 08:51:15;;;;;;;6.25;3.42;;;7.30;99.90;;;;;;5062334;28;20060;-61
2023/10/20 08:53:41;;;;;;;7.00;3.30;;;7.30;99.90;;;;;;5056553;28;20049;-61
2023/10/20 08:56:09;;;;;;;6.00;3.20;;;7.30;99.90;;;;;;5048438;28;20045;-62
2023/10/20 08:58:35;;;;;;;5.90;2.33;;;7.30;99.90;;;;;;5055071;28;20056;-62
2023/10/20 09:01:03;;;;;;;6.72;2.92;;;7.20;99.90;;;;;;5049449;28;20045;-62
2023/10/20 09:03:39;;;;;;;6.75;2.78;;;7.30;99.90;;;;;;5052742;28;20048;-62
2023/10/20 09:06:06;;;;;;;7.03;2.95;;;7.30;99.90;;;;;;5033678;28;20040;-62
2023/10/20 09:08:37;;;;;;;9.10;2.45;;;7.30;99.90;;;;;;5031760;28;20055;-62
2023/10/20 09:11:09;;;;;;;7.18;2.72;;;7.30;99.90;;;;;;5049820;28;20056;-62
2023/10/20 09:13:37;;;;;;;4.95;2.00;;;7.30;99.90;;;;;;5049883;28;20056;-62
2023/10/20 09:16:09;;;;;;;3.42;1.65;;;7.30;99.90;;;;;;5053990;28;20083;-62
2023/10/20 09:18:43;;;;;;;5.43;2.05;;;7.30;99.90;;;;;;5057370;28;20037;-63
2023/10/20 09:21:09;;;;;;;5.33;2.20;;;7.30;99.90;;;;;;5049155;28;20080;-62
2023/10/20 09:23:35;;;;;;;5.95;2.28;;;7.30;99.90;;;;;;5031812;28;20079;-62
2023/10/20 09:26:00;;;;;;;4.57;2.22;;;7.20;99.90;;;;;;5058108;28;20291;-62
2023/10/20 09:28:26;;;;;;;4.80;2.25;;;7.30;99.90;;;;;;5051332;28;20045;-62
2023/10/20 09:30:54;;;;;;;4.68;1.73;;;7.30;99.90;;;;;;5056753;28;20051;-62
2023/10/20 09:33:21;;;;;;;9.80;5.35;;;7.30;99.90;;;;;;5061190;28;20041;-62
2023/10/20 09:35:46;;;;;;;14.63;9.80;;;7.30;99.90;;;;;;5048949;28;20052;-62
2023/10/20 09:38:13;;;;;;;8.18;4.72;;;7.20;99.90;;;;;;5052420;28;20494;-62
2023/10/20 09:40:41;;;;;;;4.35;2.15;;;7.30;99.90;;;;;;5068310;28;20048;-62
2023/10/20 09:43:22;;;;;;;7.75;4.88;;;7.20;99.90;;;;;;5053813;28;20044;-61
2023/10/20 09:45:52;;;;;;;4.78;2.33;;;7.30;99.90;;;;;;5048432;28;20409;-61
2023/10/20 09:48:19;;;;;;;4.82;1.92;;;7.20;99.90;;;;;;5048413;28;20123;-65
2023/10/20 09:50:47;;;;;;;4.93;2.25;;;7.20;99.90;;;;;;5047770;28;20076;-65
2023/10/20 09:53:16;;;;;;;6.38;3.55;;;7.20;99.90;;;;;;5053522;28;20385;-65
2023/10/20 09:55:44;;;;;;;6.90;2.88;;;7.20;99.90;;;;;;5066761;28;20110;-65
2023/10/20 09:58:11;;;;;;;6.88;3.20;;;7.20;99.90;;;;;;5062596;28;20486;-65
2023/10/20 10:00:40;;;;;;;4.70;2.40;;;7.20;99.90;;;;;;5048963;28;20405;-65
2023/10/20 10:03:06;;;;;;;5.05;1.80;;;7.30;99.90;;;;;;5065491;28;20069;-65
2023/10/20 10:05:33;;;;;;;4.22;1.90;;;7.20;99.90;;;;;;5047628;28;20076;-65
2023/10/20 10:08:07;;;;;;;4.80;1.73;;;7.20;99.90;;;;;;5049366;28;20048;-65
2023/10/20 10:10:35;;;;;;;9.35;2.40;;;7.20;99.90;;;;;;5048085;28;20067;-65
2023/10/20 10:13:05;;;;;;;3.78;1.85;;;7.20;99.90;;;;;;5049376;28;20037;-65
2023/10/20 10:15:38;;;;;;;4.53;2.28;;;7.20;99.90;;;;;;5047211;28;20053;-65
2023/10/20 10:18:12;;;;;;;6.75;1.98;;;7.20;99.90;;;;;;5052261;28;20083;-65
2023/10/20 10:20:43;;;;;;;4.78;1.75;;;7.20;99.90;;;;;;5056494;28;20037;-65
2023/10/20 10:23:16;;;;;;;3.80;1.73;;;7.20;99.90;;;;;;5047689;28;20083;-65
2023/10/20 10:25:45;;;;;;;3.80;1.65;;;7.20;99.90;;;;;;5064074;28;20052;-65
2023/10/20 10:28:21;;;;;;;3.88;1.70;;;7.10;99.90;;;;;;5063795;28;20052;-65
2023/10/20 10:30:54;;;;;;;3.47;1.42;;;7.20;99.90;;;;;;5048035;28;20045;-65
2023/10/20 10:33:21;;;;;;;3.38;1.30;;;7.10;99.90;;;;;;5048038;28;20083;-65
2023/10/20 10:35:47;;;;;;;3.97;2.00;;;7.10;99.90;;;;;;5030647;28;20120;-65
2023/10/20 10:38:20;;;;;;;5.00;2.33;;;7.10;99.90;;;;;;5039517;28;20051;-64
2023/10/20 10:40:47;;;;;;;3.80;1.70;;;7.10;99.90;;;;;;5050163;28;20036;-64
2023/10/20 10:43:18;;;;;;;5.00;1.75;;;7.00;99.90;;;;;;5068297;28;20055;-64
2023/10/20 10:45:44;;;;;;;4.43;1.80;;;7.10;99.90;;;;;;5063142;28;20058;-63
2023/10/20 10:48:11;;;;;;;4.93;2.05;;;7.10;99.90;;;;;;5052018;28;20098;-63
2023/10/20 10:50:39;;;;;;;3.53;1.45;;;7.00;99.90;;;;;;5048632;28;20381;-62
2023/10/20 10:53:05;;;;;;;3.75;1.65;;;7.10;99.90;;;;;;5053380;28;20049;-62
2023/10/20 10:55:31;;;;;;;4.38;1.83;;;7.10;99.90;;;;;;5047334;28;20402;-62
2023/10/20 10:57:57;;;;;;;3.83;1.80;;;7.00;99.90;;;;;;5065123;28;20091;-62
2023/10/20 11:00:24;;;;;;;4.82;1.50;;;7.10;99.90;;;;;;5081568;28;20041;-62
2023/10/20 11:02:51;;;;;;;19.08;9.13;;;7.00;99.90;;;;;;5048154;28;20051;-62
2023/10/20 11:05:17;;;;;;;14.00;5.78;;;7.00;99.90;;;;;;5047527;28;20107;-62
2023/10/20 11:08:04;;;;;;;18.27;9.70;;;6.90;99.90;;;;;;5041744;28;20069;-61
2023/10/20 11:10:33;;;;;;;5.07;2.33;;;6.90;99.90;;;;;;5073511;28;20040;-62
2023/10/20 11:12:59;;;;;;;5.22;2.67;;;6.90;99.90;;;;;;5073422;28;20098;-62
2023/10/20 11:15:29;;;;;;;2.83;1.23;;;6.90;99.90;;;;;;5059118;28;20041;-62
2023/10/20 11:18:05;;;;;;;4.68;1.70;;;7.00;99.90;;;;;;5058169;28;20036;-62
2023/10/20 11:20:41;;;;;;;5.45;3.40;;;6.90;99.90;;;;;;5073285;28;20045;-61
2023/10/20 11:23:07;;;;;;;4.68;1.77;;;6.90;99.90;;;;;;5072116;28;20034;-62
2023/10/20 11:25:34;;;;;;;4.22;1.50;;;7.00;99.90;;;;;;5058743;28;20064;-62
2023/10/20 11:28:02;;;;;;;3.50;1.50;;;6.90;99.90;;;;;;5053540;28;20075;-62
2023/10/20 11:30:31;;;;;;;2.17;1.20;;;6.90;99.90;;;;;;5070875;28;20044;-62
2023/10/20 11:32:57;;;;;;;3.30;1.30;;;6.80;99.90;;;;;;5074857;28;20049;-62
2023/10/20 11:35:26;;;;;;;3.30;1.55;;;6.80;99.90;;;;;;5073032;28;20040;-62
2023/10/20 11:37:56;;;;;;;2.83;1.20;;;6.70;99.90;;;;;;5067362;28;20084;-62
2023/10/20 11:40:23;;;;;;;2.75;0.98;;;6.80;99.90;;;;;;5062453;28;20494;-61
2023/10/20 11:42:49;;;;;;;2.15;0.90;;;6.70;99.90;;;;;;5052622;28;20451;-61
2023/10/20 11:45:15;;;;;;;2.38;1.00;;;6.80;99.90;;;;;;5055850;28;20045;-62
2023/10/20 11:47:41;;;;;;;2.60;0.98;;;6.70;99.90;;;;;;5049440;28;20128;-61
2023/10/20 11:50:09;;;;;;;1.58;0.68;;;6.80;99.90;;;;;;5034097;28;20141;-62
2023/10/20 11:52:40;;;;;;;2.85;1.02;;;6.80;99.90;;;;;;5051747;28;20057;-61
2023/10/20 11:55:08;;;;;;;5.57;1.95;;;6.80;99.90;;;;;;5049668;28;20045;-61
2023/10/20 11:57:35;;;;;;;7.55;1.63;;;6.80;99.90;;;;;;5053957;28;20047;-61
2023/10/20 12:00:07;;;;;;;2.83;1.10;;;6.80;99.90;;;;;;5065454;28;20044;-61
2023/10/20 12:02:33;;;;;;;2.13;1.00;;;6.80;99.90;;;;;;5071278;28;20044;-62
2023/10/20 12:05:00;;;;;;;2.15;0.90;;;6.80;99.90;;;;;;5072389;28;20040;-62
2023/10/20 12:07:26;;;;;;;1.70;0.77;;;6.80;99.90;;;;;;5071172;28;20074;-62
2023/10/20 12:09:51;;;;;;;2.28;0.90;;;6.80;99.90;;;;;;5069766;28;20044;-62
2023/10/20 12:12:17;;;;;;;2.63;1.02;;;6.90;99.90;;;;;;5054763;28;20041;-62
2023/10/20 12:14:44;;;;;;;1.88;0.82;;;6.80;99.90;;;;;;5070632;28;20123;-62
2023/10/20 12:17:10;;;;;;;3.35;0.90;;;6.80;99.90;;;;;;5070225;28;20401;-62
2023/10/20 12:19:36;;;;;;;2.53;0.90;;;6.80;99.90;;;;;;5069948;28;20047;-62
2023/10/20 12:22:02;;;;;;;3.63;1.35;;;6.80;99.90;;;;;;5069694;28;20386;-62
2023/10/20 12:24:28;;;;;;;2.58;1.10;;;6.80;99.90;;;;;;5070487;28;20051;-63
2023/10/20 12:26:55;;;;;;;2.65;0.90;;;6.80;99.90;;;;;;5071185;28;20063;-63
2023/10/20 12:29:22;;;;;;;3.55;1.52;;;6.80;99.90;;;;;;5071517;28;20405;-62
2023/10/20 12:31:48;;;;;;;16.73;8.68;;;6.80;99.90;;;;;;5071113;28;20060;-63
2023/10/20 12:34:14;;;;;;;9.73;5.70;;;6.90;99.90;;;;;;5070794;28;20036;-63
2023/10/20 12:36:42;;;;;;;8.20;4.50;;;6.80;99.90;;;;;;5052223;28;20048;-63
2023/10/20 12:39:09;;;;;;;6.10;3.92;;;6.80;99.90;;;;;;5072091;28;20040;-62
2023/10/20 12:41:38;;;;;;;4.68;2.05;;;6.90;99.90;;;;;;5061518;28;20037;-63
2023/10/20 12:44:04;;;;;;;6.25;3.72;;;7.00;99.90;;;;;;5033536;28;20048;-63
2023/10/20 12:46:30;;;;;;;3.53;1.30;;;6.90;99.90;;;;;;5051620;28;20425;-63
2023/10/20 12:48:55;;;;;;;3.75;2.13;;;6.90;99.90;;;;;;5051656;28;20052;-62
2023/10/20 12:51:21;;;;;;;2.50;1.27;;;6.80;99.90;;;;;;5049731;28;20056;-63
2023/10/20 12:53:46;;;;;;;2.83;1.23;;;6.90;99.90;;;;;;5050408;28;20041;-63
2023/10/20 12:56:12;;;;;;;2.72;1.20;;;6.80;99.90;;;;;;5049200;28;20116;-63
2023/10/20 12:58:40;;;;;;;4.65;2.38;;;6.90;99.90;;;;;;5050590;28;20095;-63
2023/10/20 13:01:06;;;;;;;3.50;1.23;;;6.90;99.90;;;;;;5051611;28;20037;-62
2023/10/20 13:03:32;;;;;;;1.58;1.10;;;6.90;99.90;;;;;;5050942;28;20037;-63
2023/10/20 13:05:58;;;;;;;3.38;1.00;;;6.80;99.90;;;;;;5064019;28;20052;-63
2023/10/20 13:08:24;;;;;;;1.95;1.00;;;6.80;99.90;;;;;;5070210;28;20048;-63
2023/10/20 13:10:50;;;;;;;2.55;0.95;;;6.90;99.90;;;;;;5070102;28;20549;-63
2023/10/20 13:13:17;;;;;;;3.72;1.60;;;6.90;99.90;;;;;;5070586;28;20041;-63
2023/10/20 13:15:43;;;;;;;3.50;1.40;;;6.80;99.90;;;;;;5068773;28;20048;-63
2023/10/20 13:18:12;;;;;;;2.47;1.02;;;6.80;99.90;;;;;;5053928;28;20185;-63
2023/10/20 13:20:39;;;;;;;3.88;1.60;;;6.80;99.90;;;;;;5068946;28;20089;-63
2023/10/20 13:23:04;;;;;;;3.75;1.48;;;6.80;99.90;;;;;;5052662;28;20728;-62